Time;durP1;ratioP1;P1;durP2;ratioP2;P2;SDS_P1;SDS_P2;PMS_P1;PMS_P2;Temp;Humidity;BMP_temperature;BMP_pressure;BME280_temperature;BME280_humidity;BME280_pressure;Samples;Min_cycle;Max_cycle;Signal;HPM_P1;HPM_P2
2022/09/26 00:01:50;;;;;;;10.13;3.67;;;;;;;12.73;49.36;100843.50;7389190;19;20007;-58
2022/09/26 00:04:18;;;;;;;7.88;3.30;;;;;;;12.66;49.76;100832.38;7390072;19;20013;-58
2022/09/26 00:06:44;;;;;;;8.25;3.63;;;;;;;12.59;49.72;100817.38;7388839;19;20006;-58
2022/09/26 00:09:09;;;;;;;10.90;3.45;;;;;;;12.51;49.93;100821.09;7389622;19;20476;-58
2022/09/26 00:11:35;;;;;;;7.50;3.35;;;;;;;12.54;49.91;100812.16;7389818;19;19998;-57
2022/09/26 00:14:06;;;;;;;9.80;3.78;;;;;;;12.60;49.73;100805.25;7390802;19;20468;-58
2022/09/26 00:16:32;;;;;;;8.00;3.67;;;;;;;12.51;49.70;100810.13;7390586;19;20009;-58
2022/09/26 00:18:58;;;;;;;5.97;3.05;;;;;;;12.48;49.91;100799.91;7390318;19;20458;-58
2022/09/26 00:21:25;;;;;;;10.05;3.75;;;;;;;12.60;49.69;100794.31;7390206;19;20018;-57
2022/09/26 00:23:51;;;;;;;7.32;3.45;;;;;;;12.51;49.78;100790.97;7390261;19;20007;-56
2022/09/26 00:26:18;;;;;;;9.10;3.65;;;;;;;12.42;50.13;100790.34;7386623;19;20074;-57
2022/09/26 00:28:44;;;;;;;10.90;3.50;;;;;;;12.57;49.47;100791.50;7387309;19;20360;-56
2022/09/26 00:31:17;;;;;;;7.60;3.10;;;;;;;12.57;49.59;100784.09;7390346;19;20362;-56
2022/09/26 00:33:43;;;;;;;7.10;3.40;;;;;;;12.42;49.82;100790.34;7389798;19;20376;-56
2022/09/26 00:36:09;;;;;;;7.13;3.00;;;;;;;12.42;49.65;100776.66;7387004;19;20454;-56
2022/09/26 00:38:35;;;;;;;8.48;3.40;;;;;;;12.38;50.05;100787.53;7387863;19;20466;-56
2022/09/26 00:41:02;;;;;;;8.30;3.47;;;;;;;12.25;50.20;100782.50;7387195;19;20010;-56
2022/09/26 00:43:27;;;;;;;7.68;3.15;;;;;;;12.33;50.35;100771.38;7389595;19;20474;-57
2022/09/26 00:45:56;;;;;;;7.90;3.10;;;;;;;12.41;49.87;100770.41;7386925;19;20035;-58
2022/09/26 00:48:22;;;;;;;9.52;3.50;;;;;;;12.47;49.96;100768.19;7388963;19;20002;-57
2022/09/26 00:50:48;;;;;;;6.80;3.10;;;;;;;12.46;49.85;100768.53;7388960;19;20058;-57
2022/09/26 00:53:13;;;;;;;5.63;2.88;;;;;;;12.49;49.79;100757.69;7390529;19;20008;-57
2022/09/26 00:55:43;;;;;;;10.27;3.05;;;;;;;12.43;49.87;100758.31;7389578;19;20470;-58
2022/09/26 00:58:13;;;;;;;6.72;3.10;;;;;;;12.47;49.92;100753.72;7388798;19;20002;-57
2022/09/26 01:00:40;;;;;;;10.50;3.65;;;;;;;12.54;49.62;100757.41;7393007;19;20022;-57
2022/09/26 01:03:07;;;;;;;8.80;3.80;;;;;;;12.51;49.75;100757.34;7395299;19;20006;-58
2022/09/26 01:05:34;;;;;;;7.72;2.90;;;;;;;12.33;50.02;100741.28;7395236;19;20359;-58
2022/09/26 01:08:01;;;;;;;6.45;3.20;;;;;;;12.31;50.19;100740.06;7395801;19;20062;-58
2022/09/26 01:10:28;;;;;;;7.88;3.15;;;;;;;12.37;50.14;100739.44;7401006;19;20120;-57
2022/09/26 01:12:55;;;;;;;6.15;2.85;;;;;;;12.50;49.88;100737.34;7396677;19;19999;-56
2022/09/26 01:15:21;;;;;;;9.00;3.28;;;;;;;12.50;49.82;100726.41;7393119;19;20331;-56
2022/09/26 01:17:47;;;;;;;5.55;2.78;;;;;;;12.50;49.65;100720.94;7392762;19;19991;-57
2022/09/26 01:20:28;;;;;;;7.85;3.05;;;;;;;12.50;49.89;100720.16;7396771;19;20024;-57
2022/09/26 01:23:32;;;;;;;7.85;3.42;;;;;;;12.54;49.65;100713.63;7395349;19;19995;-58
2022/09/26 01:26:10;;;;;;;10.85;3.13;;;;;;;12.62;49.64;100702.81;7392147;19;19995;-57
2022/09/26 01:29:03;;;;;;;12.32;3.35;;;;;;;12.64;49.42;100697.75;7395126;19;19998;-58
2022/09/26 01:31:37;;;;;;;7.35;2.70;;;;;;;12.67;49.39;100697.84;7395571;19;19998;-57
2022/09/26 01:34:23;;;;;;;7.72;2.80;;;;;;;12.54;49.75;100699.91;7394805;19;20013;-57
2022/09/26 01:37:12;;;;;;;9.88;2.92;;;;;;;12.53;49.87;100700.28;7393783;19;20005;-57
2022/09/26 01:40:04;;;;;;;7.93;3.28;;;;;;;12.55;50.06;100701.50;7395111;19;19995;-57
2022/09/26 01:43:07;;;;;;;6.28;3.00;;;;;;;12.44;50.06;100688.72;7395206;19;20006;-57
2022/09/26 01:46:07;;;;;;;6.55;2.50;;;;;;;12.55;49.81;100698.75;7393602;19;20006;-57
2022/09/26 01:48:39;;;;;;;7.20;2.83;;;;;;;12.62;49.52;100684.44;7392021;19;20023;-57
2022/09/26 01:51:16;;;;;;;8.15;3.00;;;;;;;12.69;49.56;100678.31;7394031;19;19995;-57
2022/09/26 01:53:53;;;;;;;10.05;3.30;;;;;;;12.55;49.63;100682.31;7393199;19;20006;-57
2022/09/26 01:56:24;;;;;;;8.10;3.00;;;;;;;12.57;49.71;100674.56;7395491;19;20019;-56
2022/09/26 01:58:58;;;;;;;7.50;3.38;;;;;;;12.67;49.43;100675.94;7395254;19;20002;-57
2022/09/26 02:01:28;;;;;;;8.45;2.90;;;;;;;12.55;50.00;100671.38;7393940;19;20536;-57
2022/09/26 02:04:03;;;;;;;7.57;2.65;;;;;;;12.78;49.41;100667.97;7394996;19;20248;-57
2022/09/26 02:06:41;;;;;;;10.77;2.88;;;;;;;12.87;49.12;100663.06;7394711;19;20466;-57
2022/09/26 02:09:12;;;;;;;8.13;3.20;;;;;;;12.62;49.42;100656.25;7392793;19;19995;-57
2022/09/26 02:11:42;;;;;;;5.07;2.72;;;;;;;12.67;49.34;100654.03;7393242;19;19998;-57
2022/09/26 02:14:21;;;;;;;9.88;3.22;;;;;;;12.65;49.66;100644.59;7394031;19;20017;-57
2022/09/26 02:16:49;;;;;;;8.40;3.00;;;;;;;12.80;49.35;100635.53;7393358;19;19995;-57
2022/09/26 02:19:30;;;;;;;6.50;2.95;;;;;;;12.78;49.28;100629.63;7393884;19;20003;-57
2022/09/26 02:21:57;;;;;;;7.50;2.88;;;;;;;12.81;49.21;100620.69;7394255;19;20006;-57
2022/09/26 02:24:23;;;;;;;7.18;3.17;;;;;;;12.71;49.47;100621.25;7393693;19;19999;-57
2022/09/26 02:26:51;;;;;;;7.40;2.78;;;;;;;12.66;49.61;100616.03;7390239;19;20339;-57
2022/09/26 02:29:16;;;;;;;8.93;2.90;;;;;;;12.64;49.44;100607.41;7393660;19;20013;-57
2022/09/26 02:31:53;;;;;;;9.30;3.00;;;;;;;12.61;49.78;100600.72;7393080;19;20038;-57
2022/09/26 02:34:25;;;;;;;7.43;3.30;;;;;;;12.62;49.27;100596.81;7394117;19;20439;-57
2022/09/26 02:36:54;;;;;;;8.52;2.92;;;;;;;12.57;49.58;100586.97;7390724;19;20018;-57
2022/09/26 02:39:20;;;;;;;10.88;3.35;;;;;;;12.43;49.74;100578.44;7393697;19;20098;-57
2022/09/26 02:42:08;;;;;;;7.25;3.30;;;;;;;12.45;49.87;100576.13;7393966;19;19998;-57
2022/09/26 02:44:54;;;;;;;8.93;3.05;;;;;;;12.43;49.80;100572.97;7392294;19;20415;-57
2022/09/26 02:47:31;;;;;;;10.65;3.00;;;;;;;12.62;49.56;100565.91;7390826;19;20014;-57
2022/09/26 02:50:26;;;;;;;8.00;2.80;;;;;;;12.56;49.94;100555.25;7393993;19;20002;-56
2022/09/26 02:53:12;;;;;;;7.15;3.05;;;;;;;12.51;49.72;100558.28;7393370;19;20002;-57
2022/09/26 02:55:50;;;;;;;7.45;3.15;;;;;;;12.55;49.82;100550.91;7394718;19;20006;-57
2022/09/26 02:58:35;;;;;;;5.50;3.00;;;;;;;12.51;49.87;100550.06;7391449;19;20006;-56
2022/09/26 03:01:38;;;;;;;8.88;2.90;;;;;;;12.46;50.00;100541.34;7393077;19;20003;-56
2022/09/26 03:04:20;;;;;;;7.55;3.00;;;;;;;12.53;50.01;100549.72;7389528;19;19998;-57
2022/09/26 03:06:51;;;;;;;6.70;2.90;;;;;;;12.57;49.61;100529.47;7393774;19;20002;-56
2022/09/26 03:09:21;;;;;;;13.88;2.67;;;;;;;12.57;49.62;100529.47;7388588;19;19995;-56
2022/09/26 03:11:47;;;;;;;6.75;2.97;;;;;;;12.59;49.77;100529.91;7391118;19;20151;-57
2022/09/26 03:14:15;;;;;;;7.75;2.80;;;;;;;12.50;49.81;100528.53;7392245;19;20005;-57
2022/09/26 03:16:43;;;;;;;8.52;3.00;;;;;;;12.44;49.93;100519.81;7388755;19;20550;-57
2022/09/26 03:19:13;;;;;;;7.70;2.63;;;;;;;12.51;49.86;100522.69;7392156;19;19991;-57
2022/09/26 03:21:38;;;;;;;9.90;3.55;;;;;;;12.54;49.68;100513.75;7391949;19;20383;-57
2022/09/26 03:24:04;;;;;;;7.28;2.75;;;;;;;12.65;49.50;100508.47;7390676;19;20475;-55
2022/09/26 03:26:31;;;;;;;9.93;2.65;;;;;;;12.65;49.36;100511.22;7388840;19;19994;-57
2022/09/26 03:28:57;;;;;;;8.75;2.78;;;;;;;12.67;49.42;100508.13;7391183;19;20014;-56
2022/09/26 03:31:24;;;;;;;5.82;2.55;;;;;;;12.51;49.72;100502.75;7389963;19;20458;-57
2022/09/26 03:33:50;;;;;;;7.07;2.80;;;;;;;12.61;49.71;100496.69;7391733;19;20017;-57
2022/09/26 03:36:17;;;;;;;5.40;2.60;;;;;;;12.75;49.55;100498.88;7389209;19;20058;-56
2022/09/26 03:38:42;;;;;;;6.63;3.10;;;;;;;12.71;49.37;100492.56;7391080;19;20003;-58
2022/09/26 03:41:08;;;;;;;5.78;2.72;;;;;;;12.75;49.35;100496.16;7390055;19;20009;-57
2022/09/26 03:43:35;;;;;;;5.85;2.70;;;;;;;12.63;49.56;100485.38;7390710;19;20006;-57
2022/09/26 03:46:05;;;;;;;8.63;3.08;;;;;;;12.53;49.81;100490.28;7389142;19;19999;-57
2022/09/26 03:48:31;;;;;;;8.95;3.00;;;;;;;12.50;49.71;100480.03;7390676;19;20007;-58
2022/09/26 03:51:09;;;;;;;6.75;2.60;;;;;;;12.60;49.86;100484.91;7390429;19;20081;-57
2022/09/26 03:53:37;;;;;;;7.15;2.70;;;;;;;12.52;50.14;100483.19;7391409;19;20007;-57
2022/09/26 03:56:08;;;;;;;8.18;2.72;;;;;;;12.68;49.39;100469.44;7390073;19;20003;-56
2022/09/26 03:58:33;;;;;;;6.63;3.00;;;;;;;12.64;49.66;100475.97;7389921;19;19997;-56
2022/09/26 04:01:08;;;;;;;7.95;2.95;;;;;;;12.59;49.61;100469.66;7391638;19;20384;-56
2022/09/26 04:03:35;;;;;;;8.02;2.88;;;;;;;12.47;50.08;100461.59;7392691;19;20490;-56
2022/09/26 04:06:01;;;;;;;7.28;3.10;;;;;;;12.45;49.82;100455.69;7387745;19;20002;-56
2022/09/26 04:08:26;;;;;;;8.82;2.85;;;;;;;12.65;49.64;100450.19;7389536;19;19990;-57
2022/09/26 04:10:52;;;;;;;7.28;2.85;;;;;;;12.53;49.85;100442.94;7390966;19;20013;-57
2022/09/26 04:13:18;;;;;;;6.70;2.97;;;;;;;12.38;49.84;100439.16;7390025;19;20003;-57
2022/09/26 04:15:43;;;;;;;8.38;2.83;;;;;;;12.49;49.96;100440.16;7389845;19;20016;-56
2022/09/26 04:18:09;;;;;;;7.55;2.55;;;;;;;12.53;49.66;100435.53;7386413;19;20066;-57
2022/09/26 04:20:34;;;;;;;6.88;2.92;;;;;;;12.56;49.41;100423.84;7390404;19;20005;-57
2022/09/26 04:23:00;;;;;;;6.93;3.00;;;;;;;12.63;49.13;100423.19;7390063;19;20346;-56
2022/09/26 04:25:25;;;;;;;6.13;2.88;;;;;;;12.54;49.43;100417.94;7387120;19;20002;-57
2022/09/26 04:27:51;;;;;;;8.32;2.95;;;;;;;12.62;49.38;100420.81;7389449;19;19997;-57
2022/09/26 04:30:16;;;;;;;6.10;2.95;;;;;;;12.58;49.42;100418.78;7389476;19;19998;-57
2022/09/26 04:32:42;;;;;;;6.82;2.72;;;;;;;12.56;49.20;100421.09;7390152;19;20062;-57
2022/09/26 04:35:07;;;;;;;6.85;2.85;;;;;;;12.53;49.26;100401.88;7390735;19;20003;-57
2022/09/26 04:37:35;;;;;;;6.40;2.53;;;;;;;12.46;49.54;100408.03;7394618;19;20002;-57
2022/09/26 04:40:03;;;;;;;7.32;2.97;;;;;;;12.57;49.47;100403.53;7397601;19;20005;-56
2022/09/26 04:42:32;;;;;;;9.00;2.97;;;;;;;12.48;49.61;100400.22;7395766;19;20003;-56
2022/09/26 04:44:58;;;;;;;6.10;2.78;;;;;;;12.66;49.21;100395.06;7395621;19;20414;-57
2022/09/26 04:47:23;;;;;;;6.68;2.72;;;;;;;12.63;49.12;100395.03;7392692;19;20102;-57
2022/09/26 04:49:49;;;;;;;6.22;2.63;;;;;;;12.60;49.14;100382.84;7397786;19;20003;-57
2022/09/26 04:52:14;;;;;;;7.22;2.85;;;;;;;12.67;49.30;100391.16;7396010;19;20003;-56
2022/09/26 04:54:40;;;;;;;10.07;3.47;;;;;;;12.61;49.32;100384.44;7397317;19;20005;-57
2022/09/26 04:57:05;;;;;;;8.02;2.83;;;;;;;12.72;48.93;100381.84;7393582;19;20026;-57
2022/09/26 04:59:31;;;;;;;9.57;2.92;;;;;;;12.59;49.32;100384.78;7395120;19;20010;-56
2022/09/26 05:01:57;;;;;;;5.60;2.38;;;;;;;12.54;49.62;100376.06;7395459;19;20012;-57
2022/09/26 05:04:22;;;;;;;8.23;3.13;;;;;;;12.71;48.88;100366.59;7394360;19;20088;-56
2022/09/26 05:06:48;;;;;;;6.78;2.80;;;;;;;12.64;49.21;100352.78;7393995;19;20077;-57
2022/09/26 05:09:14;;;;;;;5.50;2.80;;;;;;;12.66;49.10;100367.69;7393988;19;20477;-56
2022/09/26 05:11:40;;;;;;;6.65;2.97;;;;;;;12.51;49.50;100352.19;7396369;19;19999;-56
2022/09/26 05:14:08;;;;;;;7.10;2.78;;;;;;;12.63;49.09;100351.22;7395243;19;20086;-57
2022/09/26 05:16:33;;;;;;;7.38;3.08;;;;;;;12.10;50.58;100352.63;7395226;19;20320;-56
2022/09/26 05:18:59;;;;;;;8.52;2.97;;;;;;;12.34;50.05;100334.28;7396137;19;19999;-56
2022/09/26 05:21:25;;;;;;;6.15;2.60;;;;;;;12.48;49.82;100342.75;7395761;19;20032;-57
2022/09/26 05:26:44;;;;;;;6.32;2.90;;;;;;;12.63;49.77;100346.53;7395321;19;20070;-55
2022/09/26 05:29:10;;;;;;;9.60;2.88;;;;;;;12.55;50.05;100339.34;7396009;19;20028;-56
2022/09/26 05:31:36;;;;;;;8.88;2.90;;;;;;;12.58;50.19;100336.66;7394374;19;20017;-56
2022/09/26 05:34:06;;;;;;;4.97;2.42;;;;;;;12.63;50.29;100335.56;7395719;19;20002;-56
2022/09/26 05:36:33;;;;;;;10.55;2.60;;;;;;;12.68;50.46;100337.22;7392958;19;20077;-57
2022/09/26 05:38:59;;;;;;;10.10;2.60;;;;;;;12.66;50.72;100348.53;7394718;19;20007;-56
2022/09/26 05:41:32;;;;;;;7.80;2.58;;;;;;;12.64;50.50;100342.63;7393044;19;20470;-56
2022/09/26 05:43:58;;;;;;;7.57;2.63;;;;;;;12.57;50.87;100337.84;7394917;19;20009;-56
2022/09/26 05:46:24;;;;;;;5.50;2.35;;;;;;;12.52;51.19;100346.31;7391312;19;20603;-57
2022/09/26 05:48:50;;;;;;;5.65;2.70;;;;;;;12.61;51.36;100337.88;7394424;19;20017;-56
2022/09/26 05:51:19;;;;;;;10.25;2.97;;;;;;;12.67;50.99;100335.63;7392646;19;19998;-57
2022/09/26 05:53:46;;;;;;;9.57;2.75;;;;;;;12.67;51.01;100336.41;7395061;19;20058;-56
2022/09/26 05:56:13;;;;;;;8.88;3.10;;;;;;;12.73;50.90;100339.63;7395782;19;19987;-57
2022/09/26 05:58:40;;;;;;;6.93;2.72;;;;;;;12.70;51.19;100326.69;7394268;19;19998;-57
2022/09/26 06:01:08;;;;;;;9.45;3.42;;;;;;;12.75;50.91;100327.16;7393783;19;20006;-56
2022/09/26 06:03:34;;;;;;;11.77;3.40;;;;;;;12.84;50.68;100326.09;7393637;19;19999;-57
2022/09/26 06:06:09;;;;;;;7.50;3.00;;;;;;;12.70;51.05;100313.75;7391489;19;20517;-56
2022/09/26 06:08:36;;;;;;;8.75;3.20;;;;;;;12.58;51.68;100320.22;7393819;19;19995;-57
2022/09/26 06:11:07;;;;;;;7.13;3.20;;;;;;;12.75;50.91;100316.19;7392659;19;20006;-57
2022/09/26 06:13:33;;;;;;;8.50;3.92;;;;;;;12.72;50.88;100307.94;7392032;19;20300;-57
2022/09/26 06:16:04;;;;;;;9.20;3.80;;;;;;;12.77;50.79;100313.09;7392733;19;19987;-57
2022/09/26 06:18:37;;;;;;;6.88;3.40;;;;;;;12.75;51.18;100305.22;7391806;19;20019;-57
2022/09/26 06:21:08;;;;;;;6.38;3.30;;;;;;;12.72;51.00;100305.19;7394140;19;19999;-57
2022/09/26 06:23:34;;;;;;;10.20;4.43;;;;;;;12.79;51.16;100302.53;7393399;19;20324;-55
2022/09/26 06:26:02;;;;;;;10.30;4.20;;;;;;;12.80;50.74;100298.66;7392369;19;20022;-57
2022/09/26 06:28:28;;;;;;;9.13;4.43;;;;;;;12.69;51.20;100292.22;7393614;19;20001;-57
2022/09/26 06:30:54;;;;;;;9.85;4.05;;;;;;;12.67;51.33;100283.59;7394457;19;19995;-56
2022/09/26 06:33:20;;;;;;;9.88;3.70;;;;;;;12.72;51.14;100283.28;7393414;19;20454;-56
2022/09/26 06:35:45;;;;;;;8.48;3.70;;;;;;;12.84;50.88;100290.50;7392728;19;20032;-55
2022/09/26 06:38:11;;;;;;;9.95;3.97;;;;;;;12.88;50.85;100275.72;7390862;19;19995;-54
2022/09/26 06:40:36;;;;;;;13.02;4.28;;;;;;;12.68;51.38;100277.75;7393371;19;20019;-51
2022/09/26 06:43:02;;;;;;;12.00;4.32;;;;;;;12.66;51.50;100276.53;7394506;19;20504;-55
2022/09/26 06:45:28;;;;;;;9.38;4.28;;;;;;;12.83;51.02;100267.81;7391121;19;20002;-55
2022/09/26 06:47:53;;;;;;;10.45;4.45;;;;;;;12.77;50.96;100269.28;7389897;19;20003;-54
2022/09/26 06:50:20;;;;;;;10.32;4.35;;;;;;;12.81;51.11;100259.19;7393377;19;20500;-56
2022/09/26 06:52:46;;;;;;;11.15;4.45;;;;;;;12.77;51.32;100258.31;7392811;19;20006;-54
2022/09/26 06:55:18;;;;;;;10.07;4.57;;;;;;;12.68;51.31;100255.84;7393177;19;20011;-54
2022/09/26 06:57:43;;;;;;;10.30;4.90;;;;;;;12.70;51.21;100264.47;7388375;19;20114;-52
2022/09/26 07:00:12;;;;;;;8.57;4.45;;;;;;;12.53;51.81;100249.38;7392404;19;20475;-55
2022/09/26 07:02:38;;;;;;;10.35;4.55;;;;;;;12.58;51.45;100246.31;7392756;19;20003;-52
2022/09/26 07:05:04;;;;;;;11.38;4.60;;;;;;;12.72;51.17;100239.47;7392704;19;20343;-53
2022/09/26 07:07:31;;;;;;;9.25;4.63;;;;;;;12.80;50.90;100243.09;7392062;19;20002;-53
2022/09/26 07:09:56;;;;;;;10.43;5.05;;;;;;;12.72;51.02;100234.00;7390630;19;20018;-55
2022/09/26 07:12:23;;;;;;;11.15;5.35;;;;;;;12.86;50.77;100244.34;7391374;19;20002;-54
2022/09/26 07:14:50;;;;;;;11.82;4.45;;;;;;;12.77;51.21;100228.19;7391727;19;20006;-54
2022/09/26 07:17:16;;;;;;;10.55;4.82;;;;;;;12.96;50.42;100228.09;7388861;19;20007;-52
2022/09/26 07:19:43;;;;;;;10.85;4.80;;;;;;;13.01;50.73;100226.19;7389795;19;20356;-55
2022/09/26 07:22:09;;;;;;;9.30;4.70;;;;;;;13.00;50.48;100222.66;7391748;19;20010;-52
2022/09/26 07:24:34;;;;;;;9.50;4.65;;;;;;;13.08;50.39;100220.81;7391453;19;20007;-55
2022/09/26 07:27:00;;;;;;;10.90;5.10;;;;;;;13.13;50.08;100218.53;7391267;19;20007;-54
2022/09/26 07:29:26;;;;;;;10.30;5.07;;;;;;;13.00;50.46;100214.44;7389726;19;20581;-56
2022/09/26 07:31:52;;;;;;;12.70;5.55;;;;;;;12.92;50.52;100213.56;7391726;19;19991;-55
2022/09/26 07:34:17;;;;;;;11.00;5.50;;;;;;;12.95;50.52;100214.78;7391661;19;19999;-56
2022/09/26 07:36:44;;;;;;;9.80;5.18;;;;;;;13.03;50.30;100210.19;7390799;19;19998;-56
2022/09/26 07:39:10;;;;;;;9.98;5.32;;;;;;;13.21;49.75;100213.94;7392698;19;20033;-56
2022/09/26 07:41:35;;;;;;;12.15;5.10;;;;;;;13.31;49.73;100199.56;7392463;19;20315;-55
2022/09/26 07:44:01;;;;;;;12.05;5.07;;;;;;;13.20;49.80;100204.13;7391418;19;20498;-54
2022/09/26 07:51:55;;;;;;;9.60;4.70;;;;;;;13.50;49.02;100206.03;7391531;19;20009;-52
2022/09/26 07:54:22;;;;;;;11.95;4.72;;;;;;;13.48;48.98;100202.88;7390926;19;19999;-56
2022/09/26 07:56:48;;;;;;;9.45;4.97;;;;;;;13.38;48.99;100195.31;7393941;19;20037;-56
2022/09/26 07:59:14;;;;;;;11.30;4.75;;;;;;;13.47;48.85;100187.56;7391971;19;20010;-55
2022/09/26 08:01:39;;;;;;;11.75;5.30;;;;;;;13.58;48.42;100183.00;7389051;19;19998;-54
2022/09/26 08:04:05;;;;;;;11.80;5.10;;;;;;;13.43;48.82;100184.81;7390673;19;20014;-57
2022/09/26 08:06:33;;;;;;;11.07;4.85;;;;;;;13.62;48.24;100180.28;7390052;19;20343;-57
2022/09/26 08:08:59;;;;;;;12.45;5.00;;;;;;;13.81;47.87;100180.09;7390928;19;20003;-57
2022/09/26 08:11:26;;;;;;;10.93;4.28;;;;;;;13.53;48.51;100180.59;7398060;19;19998;-57
2022/09/26 08:13:52;;;;;;;8.35;4.63;;;;;;;13.63;48.19;100174.44;7397100;19;20002;-57
2022/09/26 08:16:21;;;;;;;9.23;4.60;;;;;;;13.50;48.08;100175.88;7395541;19;20125;-58
2022/09/26 08:18:51;;;;;;;11.15;4.50;;;;;;;13.62;48.24;100166.56;7397778;19;20013;-57
2022/09/26 08:21:18;;;;;;;9.60;4.22;;;;;;;13.65;47.98;100163.88;7396454;19;20002;-58
2022/09/26 08:23:44;;;;;;;11.52;4.47;;;;;;;13.80;47.65;100164.00;7397705;19;20735;-57
2022/09/26 08:26:09;;;;;;;8.57;4.05;;;;;;;13.93;47.30;100170.00;7396217;19;20016;-57
2022/09/26 08:28:36;;;;;;;7.82;4.13;;;;;;;13.93;47.08;100164.50;7397800;19;19995;-56
2022/09/26 08:31:03;;;;;;;11.43;4.05;;;;;;;13.95;47.01;100171.19;7395623;19;20098;-56
2022/09/26 08:33:34;;;;;;;8.02;3.78;;;;;;;13.94;47.11;100169.63;7397315;19;20356;-56
2022/09/26 08:36:07;;;;;;;11.13;3.65;;;;;;;13.96;46.93;100169.25;7395220;19;20002;-57
2022/09/26 08:38:34;;;;;;;9.07;3.95;;;;;;;13.88;47.20;100165.66;7397736;19;20007;-56
2022/09/26 08:41:19;;;;;;;8.50;3.63;;;;;;;13.83;46.55;100169.53;7397367;19;20042;-56
2022/09/26 08:43:57;;;;;;;9.57;3.90;;;;;;;13.86;46.95;100173.47;7396912;19;19998;-57
2022/09/26 08:46:47;;;;;;;8.30;4.20;;;;;;;13.53;47.29;100166.88;7393186;19;20006;-56
2022/09/26 08:49:30;;;;;;;7.55;3.80;;;;;;;13.63;47.33;100166.19;7394477;19;20010;-56
2022/09/26 08:51:58;;;;;;;11.63;4.38;;;;;;;13.77;47.23;100165.53;7396385;19;20037;-56
2022/09/26 08:54:35;;;;;;;10.23;4.15;;;;;;;13.95;46.60;100156.72;7396155;19;20010;-57
2022/09/26 08:57:06;;;;;;;13.23;4.65;;;;;;;14.00;46.57;100157.13;7393003;19;20011;-57
2022/09/26 08:59:40;;;;;;;11.57;4.93;;;;;;;13.96;46.82;100152.78;7397693;19;20007;-58
2022/09/26 09:02:38;;;;;;;9.95;4.28;;;;;;;13.97;46.87;100146.91;7396169;19;20011;-56
2022/09/26 09:05:07;;;;;;;10.40;4.70;;;;;;;13.99;47.24;100141.81;7394450;19;20006;-57
2022/09/26 09:07:33;;;;;;;11.18;4.70;;;;;;;13.90;47.19;100155.09;7394408;19;20105;-55
2022/09/26 09:10:03;;;;;;;10.88;4.75;;;;;;;13.66;47.70;100150.94;7397621;19;20494;-55
2022/09/26 09:12:42;;;;;;;11.18;4.43;;;;;;;13.81;47.14;100155.41;7396428;19;20007;-56
2022/09/26 09:15:32;;;;;;;11.55;4.75;;;;;;;13.90;47.32;100148.84;7393663;19;19999;-56
2022/09/26 09:18:15;;;;;;;10.65;4.88;;;;;;;13.67;47.78;100145.06;7393281;19;20003;-56
2022/09/26 09:20:56;;;;;;;11.00;4.70;;;;;;;13.87;47.63;100142.91;7392604;19;20442;-56
2022/09/26 09:23:40;;;;;;;13.75;5.47;;;;;;;14.01;47.57;100141.44;7395500;19;20487;-54
2022/09/26 09:26:46;;;;;;;11.68;4.68;;;;;;;13.73;48.10;100137.31;7391489;19;20475;-57
2022/09/26 09:29:36;;;;;;;12.20;4.20;;;;;;;13.99;47.43;100130.06;7393964;19;20003;-55
2022/09/26 09:32:03;;;;;;;11.55;4.55;;;;;;;13.87;47.55;100147.63;7393559;19;20001;-55
2022/09/26 09:34:38;;;;;;;10.93;4.90;;;;;;;13.94;47.74;100130.44;7395306;19;20031;-56
2022/09/26 09:37:11;;;;;;;8.15;4.10;;;;;;;13.87;47.71;100131.16;7393485;19;20491;-54
2022/09/26 09:39:41;;;;;;;9.20;4.32;;;;;;;13.82;47.97;100136.97;7395101;19;20304;-55
2022/09/26 09:42:42;;;;;;;11.45;4.63;;;;;;;13.85;47.50;100128.03;7395570;19;20003;-55
2022/09/26 09:45:17;;;;;;;11.15;5.45;;;;;;;13.78;47.97;100131.47;7393039;19;20003;-55
2022/09/26 09:47:42;;;;;;;9.43;4.68;;;;;;;13.73;48.22;100114.56;7392579;19;19999;-55
2022/09/26 09:50:14;;;;;;;9.18;4.13;;;;;;;13.46;48.74;100120.19;7394606;19;19990;-55
2022/09/26 09:52:40;;;;;;;8.38;3.78;;;;;;;13.75;48.39;100112.25;7395911;19;20010;-55
2022/09/26 09:55:24;;;;;;;10.73;4.25;;;;;;;13.56;48.34;100105.00;7395889;19;19999;-56
2022/09/26 09:58:05;;;;;;;9.82;4.35;;;;;;;13.79;48.50;100099.31;7392609;19;20058;-55
2022/09/26 10:00:37;;;;;;;12.60;4.45;;;;;;;13.49;48.90;100103.00;7395211;19;20021;-55
2022/09/26 10:03:15;;;;;;;9.13;4.65;;;;;;;13.49;49.12;100094.78;7393518;19;20030;-55
2022/09/26 10:05:44;;;;;;;10.55;4.28;;;;;;;13.29;49.19;100092.28;7392897;19;20058;-56
2022/09/26 10:08:13;;;;;;;7.97;3.90;;;;;;;13.36;49.27;100090.75;7393652;19;19998;-56
2022/09/26 10:10:59;;;;;;;9.88;3.80;;;;;;;12.94;50.00;100084.44;7395034;19;19995;-56
2022/09/26 10:13:26;;;;;;;9.40;3.72;;;;;;;13.26;49.40;100079.31;7393648;19;20016;-54
2022/09/26 10:16:04;;;;;;;8.35;3.53;;;;;;;13.28;49.57;100082.47;7392848;19;20106;-55
2022/09/26 10:18:30;;;;;;;9.82;3.70;;;;;;;13.43;49.34;100069.69;7393667;19;20010;-56
2022/09/26 10:20:58;;;;;;;8.30;3.60;;;;;;;13.58;49.01;100067.84;7394793;19;20175;-56
2022/09/26 10:23:35;;;;;;;9.20;4.00;;;;;;;13.58;49.29;100059.63;7393596;19;20000;-56
2022/09/26 10:26:03;;;;;;;9.85;4.10;;;;;;;13.73;48.91;100048.72;7393329;19;19999;-56
2022/09/26 10:28:42;;;;;;;10.77;3.90;;;;;;;13.63;49.39;100055.75;7393688;19;20001;-56
2022/09/26 10:31:10;;;;;;;8.85;3.78;;;;;;;13.88;48.97;100044.97;7393963;19;20006;-56
2022/09/26 10:33:41;;;;;;;9.88;4.68;;;;;;;13.68;49.51;100036.97;7394198;19;20399;-56
2022/09/26 10:36:19;;;;;;;9.27;4.53;;;;;;;13.73;49.46;100026.78;7392245;19;20002;-57
2022/09/26 10:42:03;;;;;;;10.82;4.95;;;;;;;13.88;49.44;100023.81;7393949;19;20015;-56
2022/09/26 10:44:34;;;;;;;11.98;5.28;;;;;;;13.92;49.50;100018.34;7394216;19;20054;-56
2022/09/26 10:47:07;;;;;;;10.77;5.63;;;;;;;14.11;49.00;100014.53;7392317;19;20032;-56
2022/09/26 10:49:49;;;;;;;11.88;6.03;;;;;;;13.97;49.48;100009.75;7393135;19;20006;-57
2022/09/26 10:52:32;;;;;;;13.45;5.25;;;;;;;13.94;49.89;99996.78;7391133;19;20006;-57
2022/09/26 10:55:18;;;;;;;11.68;5.60;;;;;;;13.78;50.25;99996.28;7393158;19;20030;-57
2022/09/26 10:57:54;;;;;;;14.50;6.22;;;;;;;13.91;49.92;99994.03;7391077;19;20466;-54
2022/09/26 11:00:36;;;;;;;11.57;5.90;;;;;;;13.95;50.26;99995.63;7391269;19;20022;-54
2022/09/26 11:03:12;;;;;;;13.25;6.18;;;;;;;14.19;49.56;99994.16;7393064;19;19994;-53
2022/09/26 11:06:00;;;;;;;13.00;6.38;;;;;;;14.01;49.90;99987.81;7391611;19;19990;-55
2022/09/26 11:08:29;;;;;;;16.50;6.65;;;;;;;14.06;49.72;99977.25;7391684;19;20030;-54
2022/09/26 11:11:01;;;;;;;13.35;6.45;;;;;;;13.67;50.69;99969.56;7392509;19;20006;-54
2022/09/26 11:13:31;;;;;;;10.82;5.63;;;;;;;14.02;49.61;99967.44;7392196;19;20070;-53
2022/09/26 11:16:02;;;;;;;12.52;5.50;;;;;;;13.78;50.27;99968.88;7390845;19;20002;-56
2022/09/26 11:18:56;;;;;;;12.90;5.63;;;;;;;13.88;50.04;99951.72;7390589;19;20062;-56
2022/09/26 11:21:41;;;;;;;14.43;5.78;;;;;;;13.65;50.72;99963.69;7393121;19;20002;-56
2022/09/26 11:24:50;;;;;;;10.68;5.50;;;;;;;13.59;50.56;99956.97;7391397;19;20469;-56
2022/09/26 11:27:37;;;;;;;12.60;5.60;;;;;;;14.01;49.77;99949.41;7387102;19;20003;-56
2022/09/26 11:30:18;;;;;;;9.82;4.93;;;;;;;13.85;50.40;99941.50;7387800;19;20016;-56
2022/09/26 11:32:47;;;;;;;11.93;5.45;;;;;;;13.85;50.09;99957.97;7389778;19;20003;-56
2022/09/26 11:35:19;;;;;;;12.07;5.28;;;;;;;14.12;49.47;99952.97;7388312;19;20494;-55
2022/09/26 11:38:06;;;;;;;10.55;4.65;;;;;;;14.06;49.70;99963.53;7390372;19;20015;-56
2022/09/26 11:41:03;;;;;;;10.73;4.75;;;;;;;13.97;49.81;99952.13;7391433;19;20006;-56
2022/09/26 11:43:50;;;;;;;8.82;4.32;;;;;;;14.06;49.35;99958.06;7388149;19;20015;-56
2022/09/26 11:46:56;;;;;;;8.45;4.38;;;;;;;14.01;49.12;99955.69;7391060;19;20018;-56
2022/09/26 11:49:33;;;;;;;8.70;4.22;;;;;;;13.97;49.36;99938.41;7391720;19;20010;-56
2022/09/26 11:52:13;;;;;;;9.85;4.30;;;;;;;14.01;49.00;99931.00;7391127;19;20011;-56
2022/09/26 11:54:56;;;;;;;8.55;3.83;;;;;;;13.90;49.39;99943.09;7391317;19;19998;-56
2022/09/26 11:57:52;;;;;;;11.68;4.80;;;;;;;13.91;49.47;99929.00;7390270;19;19995;-56